Baton Rouge, LA (70809)

12:33 PM CDT on July 23, 2016 (GMT -0500)
Jefferson Terrace | | Change Station

Elev 49 ft 30.41 °N, 91.07 °W | Updated 6 minutes ago

Mostly Cloudy
Mostly Cloudy
95.7 °F
Feels Like 110 °F
N
1.1
Wind Variable Wind from WSW

Today
High -- | Low -- °F
--% Chance of Precip.
Yesterday
High -- | Low -- °F
Precip. -- in
Pressure 30.01 in
Visibility 10.0 miles
Clouds Scattered Clouds 2000 ft
Mostly Cloudy 3700 ft
Mostly Cloudy 4400 ft
Heat Index 110 °F
Dew Point 76 °F
Humidity 54%
Rainfall 0.00 in
Snow Depth Not available.
6:17 AM 8:03 PM
Waning Gibbous, 84% visible
METAR KBTR 231653Z 29006KT 10SM SCT020 BKN037 BKN044 33/23 A3001 RMK AO2 SLP160 T03280233
Pressure 30.01 in
Visibility 10.0 miles
Clouds Scattered Clouds 2000 ft
Mostly Cloudy 3700 ft
Mostly Cloudy 4400 ft
Heat Index 110 °F
Dew Point 76 °F
Humidity 54%
Rainfall 0.00 in
Snow Depth Not available.
6:17 AM 8:03 PM
Waning Gibbous, 84% visible
METAR KBTR 231653Z 29006KT 10SM SCT020 BKN037 BKN044 33/23 A3001 RMK AO2 SLP160 T03280233

10-Day Weather Forecast

Almanac

Astronomy

Jul. 23, 2016 Rise Set
Actual Time
Civil Twilight
Nautical Twilight
Astronomical Twilight
Moon
Length of Visible Light
Length of Day
Tomorrow will be .
, % of the Moon is Illuminated

Today's Extremes

State Highs State Lows

Community

WunderPhotos

Upload Photos

1,926,878 photos uploaded!

WunderBlog® & News

Nearby

Air Quality

  Air Quality AQ Index Pollutant
Not available.

Snow Depth

Station Depth Elevation

Earthquake Activity

City Distance Mag. Time & Date
Minimum magnitude displayed is 2.5.

Coastal Water Temperatures

Place Temperature

Stations

Nearby Weather Stations

Station Location Temp. Windchill Dew Point Humidity Wind Precip. Elev Updated Type
                   

Watches & Warnings

There are currently no watches in effect.